createdAt,value
2023-01-10T00:02:11.365Z,13.60
2023-01-10T00:04:40.994Z,12.23
2023-01-10T00:07:09.220Z,12.07
2023-01-10T00:09:37.386Z,11.97
2023-01-10T00:12:23.870Z,11.70
2023-01-10T00:14:52.617Z,11.37
2023-01-10T00:17:21.806Z,11.33
2023-01-10T00:19:51.390Z,12.37
2023-01-10T00:22:25.075Z,11.53
2023-01-10T00:24:53.654Z,11.77
2023-01-10T00:27:23.445Z,11.10
2023-01-10T00:29:53.346Z,10.53
2023-01-10T00:32:22.271Z,11.30
2023-01-10T00:34:51.887Z,10.30
2023-01-10T00:37:20.242Z,11.00
2023-01-10T00:39:48.489Z,11.27
2023-01-10T00:42:34.483Z,9.73
2023-01-10T00:45:02.716Z,10.63
2023-01-10T00:47:30.909Z,9.60
2023-01-10T00:50:00.504Z,9.63
2023-01-10T00:52:28.748Z,10.27
2023-01-10T00:54:56.962Z,8.40
2023-01-10T00:57:25.225Z,9.77
2023-01-10T00:59:53.484Z,9.27
2023-01-10T01:02:21.763Z,9.07
2023-01-10T01:04:50.013Z,9.13
2023-01-10T01:07:19.604Z,9.93
2023-01-10T01:10:05.559Z,8.37
2023-01-10T01:12:33.785Z,8.67
2023-01-10T01:15:02.069Z,9.10
2023-01-10T01:17:30.245Z,8.90
2023-01-10T01:19:58.419Z,9.77
2023-01-10T01:22:27.963Z,9.30
2023-01-10T01:24:56.149Z,8.80
2023-01-10T01:27:24.486Z,8.87
2023-01-10T01:29:52.739Z,9.47
2023-01-10T01:32:21.819Z,8.50
2023-01-10T01:34:50.352Z,9.17
2023-01-10T01:37:19.574Z,7.87
2023-01-10T01:39:49.191Z,8.97
2023-01-10T01:42:26.221Z,8.97
2023-01-10T01:45:34.773Z,9.53
2023-01-10T01:48:17.317Z,9.13
2023-01-10T01:50:51.082Z,9.10
2023-01-10T01:53:25.882Z,9.53
2023-01-10T01:56:06.348Z,10.27
2023-01-10T01:58:43.205Z,8.97
2023-01-10T02:01:13.929Z,9.37
2023-01-10T02:03:46.281Z,8.70
2023-01-10T02:06:17.347Z,9.23
2023-01-10T02:08:56.065Z,9.57
2023-01-10T02:11:25.677Z,8.73
2023-01-10T02:13:55.969Z,8.37
2023-01-10T02:16:24.370Z,10.03
2023-01-10T02:18:52.659Z,9.33
2023-01-10T02:21:54.484Z,9.93
2023-01-10T02:25:13.718Z,9.17
2023-01-10T02:28:06.505Z,9.40
2023-01-10T02:31:26.461Z,9.60
2023-01-10T02:34:06.765Z,8.40
2023-01-10T02:36:48.181Z,8.40
2023-01-10T02:39:25.361Z,8.30
2023-01-10T02:42:00.986Z,8.23
2023-01-10T02:44:37.303Z,8.97
2023-01-10T02:47:08.548Z,8.23
2023-01-10T02:49:45.375Z,8.53
2023-01-10T02:52:20.707Z,8.83
2023-01-10T02:54:52.552Z,8.27
2023-01-10T02:57:50.580Z,7.97
2023-01-10T03:00:45.150Z,7.20
2023-01-10T03:03:41.315Z,9.07
2023-01-10T03:06:32.866Z,8.37
2023-01-10T03:09:12.040Z,9.10
2023-01-10T03:11:44.609Z,8.17
2023-01-10T03:14:21.288Z,7.97
2023-01-10T03:16:56.583Z,8.03
2023-01-10T03:19:30.039Z,7.80
2023-01-10T03:22:03.568Z,7.07
2023-01-10T03:24:37.886Z,7.20
2023-01-10T03:27:12.921Z,8.03
2023-01-10T03:29:49.486Z,7.00
2023-01-10T03:32:24.705Z,7.73
2023-01-10T03:34:54.694Z,8.13
2023-01-10T03:37:35.551Z,6.70
2023-01-10T03:40:14.262Z,7.67
2023-01-10T03:43:09.771Z,7.70
2023-01-10T03:45:45.941Z,6.60
2023-01-10T03:48:19.186Z,6.40
2023-01-10T03:50:48.903Z,7.37
2023-01-10T03:53:19.698Z,6.40
2023-01-10T03:55:48.076Z,6.67
2023-01-10T03:58:17.312Z,7.20
2023-01-10T04:00:45.831Z,7.17
2023-01-10T04:03:14.380Z,7.23
2023-01-10T04:05:42.828Z,7.40
2023-01-10T04:08:11.149Z,6.93
2023-01-10T04:10:41.371Z,7.60
2023-01-10T04:13:09.696Z,7.30
2023-01-10T04:15:38.032Z,6.47
2023-01-10T04:18:06.577Z,7.30
2023-01-10T04:20:34.854Z,7.97
2023-01-10T04:23:03.120Z,6.70
2023-01-10T04:25:31.635Z,7.23
2023-01-10T04:28:02.330Z,7.10
2023-01-10T04:30:30.724Z,6.80
2023-01-10T04:32:58.989Z,7.30
2023-01-10T04:35:27.309Z,7.17
2023-01-10T04:37:55.582Z,6.53
2023-01-10T04:40:23.843Z,6.13
2023-01-10T04:42:52.269Z,6.17
2023-01-10T04:45:21.979Z,6.50
2023-01-10T04:47:56.038Z,5.73
2023-01-10T04:50:24.711Z,6.00
2023-01-10T04:52:53.257Z,6.30
2023-01-10T04:55:21.621Z,5.80
2023-01-10T04:57:49.887Z,6.53
2023-01-10T05:00:19.194Z,5.23
2023-01-10T05:02:48.898Z,5.03
2023-01-10T05:05:17.668Z,5.47
2023-01-10T05:07:48.224Z,5.43
2023-01-10T05:10:17.136Z,4.90
2023-01-10T05:12:46.306Z,6.50
2023-01-10T05:15:14.932Z,5.53
2023-01-10T05:17:43.953Z,5.93
2023-01-10T05:20:14.508Z,5.90
2023-01-10T05:22:42.826Z,5.47
2023-01-10T05:25:11.457Z,5.80
2023-01-10T05:27:43.222Z,5.57
2023-01-10T05:30:14.420Z,5.27
2023-01-10T05:32:42.812Z,5.27
2023-01-10T05:35:11.302Z,4.70
2023-01-10T05:37:41.393Z,4.70
2023-01-10T05:40:12.146Z,4.80
2023-01-10T05:42:40.752Z,4.60
2023-01-10T05:45:10.771Z,5.30
2023-01-10T05:47:39.000Z,5.87
2023-01-10T05:50:08.521Z,5.10
2023-01-10T05:52:36.729Z,4.67
2023-01-10T05:55:07.430Z,5.50
2023-01-10T05:57:35.700Z,4.90
2023-01-10T06:00:06.441Z,5.50
2023-01-10T06:02:40.034Z,4.80
2023-01-10T06:05:09.516Z,5.10
2023-01-10T06:07:38.579Z,4.90
2023-01-10T06:10:09.702Z,4.93
2023-01-10T06:12:40.478Z,5.30
2023-01-10T06:15:10.744Z,4.83
2023-01-10T06:17:39.008Z,5.07
2023-01-10T06:20:08.914Z,5.10
2023-01-10T06:22:37.193Z,6.03
2023-01-10T06:25:06.351Z,5.27
2023-01-10T06:27:35.980Z,5.70
2023-01-10T06:30:05.186Z,4.80
2023-01-10T06:32:33.495Z,4.83
2023-01-10T06:35:01.744Z,5.07
2023-01-10T06:37:30.068Z,4.83
2023-01-10T06:39:58.399Z,5.10
2023-01-10T06:42:26.833Z,5.63
2023-01-10T06:44:56.540Z,5.00
2023-01-10T06:47:24.777Z,5.40
2023-01-10T06:49:53.025Z,5.10
2023-01-10T06:52:21.448Z,4.57
2023-01-10T06:54:52.981Z,5.57
2023-01-10T06:57:21.360Z,5.10
2023-01-10T06:59:49.710Z,4.97
2023-01-10T07:02:19.388Z,4.83
2023-01-10T07:04:49.899Z,5.30
2023-01-10T07:07:18.363Z,5.03
2023-01-10T07:09:46.604Z,4.80
2023-01-10T07:12:14.940Z,5.10
2023-01-10T07:14:43.180Z,4.73
2023-01-10T07:17:11.439Z,5.07
2023-01-10T07:19:41.089Z,5.00
2023-01-10T07:22:09.406Z,5.00
2023-01-10T07:24:37.787Z,5.57
2023-01-10T07:27:06.062Z,5.40
2023-01-10T07:29:34.415Z,5.53
2023-01-10T07:32:02.754Z,5.37
2023-01-10T07:34:30.988Z,5.57
2023-01-10T07:37:00.670Z,5.77
2023-01-10T07:39:28.908Z,5.33
2023-01-10T07:41:57.134Z,6.83
2023-01-10T07:44:25.503Z,6.83
2023-01-10T07:46:53.758Z,6.83
2023-01-10T07:49:22.008Z,6.07
2023-01-10T07:51:50.675Z,6.23
2023-01-10T07:54:20.616Z,6.10
2023-01-10T07:56:50.123Z,6.47
2023-01-10T07:59:18.623Z,7.03
2023-01-10T08:01:47.606Z,6.10
2023-01-10T08:04:15.894Z,6.73
2023-01-10T08:06:44.177Z,6.87
2023-01-10T08:09:12.500Z,6.80
2023-01-10T08:11:43.281Z,6.60
2023-01-10T08:14:13.313Z,6.73
2023-01-10T08:16:41.708Z,7.03
2023-01-10T08:19:12.404Z,6.80
2023-01-10T08:21:40.589Z,6.60
2023-01-10T08:24:09.261Z,6.93
2023-01-10T08:26:37.568Z,6.10
2023-01-10T08:29:07.566Z,6.57
2023-01-10T08:31:35.853Z,7.27
2023-01-10T08:34:04.198Z,7.37
2023-01-10T08:36:32.592Z,8.03
2023-01-10T08:39:00.911Z,6.87
2023-01-10T08:41:29.436Z,6.90
2023-01-10T08:43:57.875Z,7.30
2023-01-10T08:46:27.715Z,8.47
2023-01-10T08:48:56.112Z,7.13
2023-01-10T08:51:24.494Z,8.03
2023-01-10T08:53:52.705Z,7.33
2023-01-10T08:56:21.008Z,8.40
2023-01-10T08:58:49.338Z,7.97
2023-01-10T09:01:17.952Z,7.43
2023-01-10T09:03:47.664Z,7.73
2023-01-10T09:06:15.894Z,8.90
2023-01-10T09:08:44.154Z,7.17
2023-01-10T09:11:12.563Z,9.20
2023-01-10T09:13:42.195Z,7.77
2023-01-10T09:16:11.219Z,8.10
2023-01-10T09:18:39.526Z,8.40
2023-01-10T09:21:09.164Z,8.27
2023-01-10T09:23:38.437Z,9.00
2023-01-10T09:26:07.202Z,9.00
2023-01-10T09:28:35.489Z,9.60
2023-01-10T09:31:05.091Z,8.60
2023-01-10T09:33:45.932Z,9.60
2023-01-10T09:36:17.108Z,9.60
2023-01-10T09:38:45.764Z,8.53
2023-01-10T09:41:52.471Z,8.70
2023-01-10T09:44:30.757Z,9.10
2023-01-10T09:47:21.549Z,9.20
2023-01-10T09:50:05.244Z,9.17
2023-01-10T09:52:40.906Z,9.90
2023-01-10T09:55:25.099Z,8.63
2023-01-10T09:57:56.447Z,9.50
2023-01-10T10:00:37.376Z,9.03
2023-01-10T10:03:24.859Z,9.43
2023-01-10T10:06:00.862Z,9.47
2023-01-10T10:08:37.826Z,9.80
2023-01-10T10:11:35.171Z,10.67
2023-01-10T10:14:14.579Z,10.37
2023-01-10T10:17:05.906Z,10.13
2023-01-10T10:19:56.787Z,10.90
2023-01-10T10:22:43.413Z,9.97
2023-01-10T10:25:39.324Z,9.87
2023-01-10T10:28:53.492Z,10.83
2023-01-10T10:31:41.271Z,9.80
2023-01-10T10:34:22.893Z,10.40
2023-01-10T10:36:57.075Z,10.73
2023-01-10T10:39:39.504Z,11.27
2023-01-10T10:42:15.681Z,11.00
2023-01-10T10:44:53.860Z,11.47
2023-01-10T10:47:24.940Z,12.27
2023-01-10T10:50:00.590Z,11.77
2023-01-10T10:52:34.383Z,12.57
2023-01-10T10:55:06.764Z,12.57
2023-01-10T10:57:51.582Z,12.03
2023-01-10T11:00:25.494Z,11.20
2023-01-10T11:03:02.605Z,12.23
2023-01-10T11:05:37.992Z,12.13
2023-01-10T11:08:11.041Z,11.10
2023-01-10T11:10:40.440Z,11.93
2023-01-10T11:13:21.978Z,11.37
2023-01-10T11:15:52.020Z,12.13
2023-01-10T11:18:26.982Z,11.23
2023-01-10T11:21:00.140Z,11.37
2023-01-10T11:23:50.999Z,11.33
2023-01-10T11:26:27.625Z,10.97
2023-01-10T11:29:10.176Z,11.43
2023-01-10T11:31:39.398Z,11.33
2023-01-10T11:34:22.865Z,12.00
2023-01-10T11:36:57.934Z,11.13
2023-01-10T11:39:28.073Z,11.93
2023-01-10T11:41:59.394Z,12.23
2023-01-10T11:44:30.989Z,11.07
2023-01-10T11:47:05.028Z,12.03
2023-01-10T11:49:39.870Z,12.33
2023-01-10T11:52:20.995Z,11.67
2023-01-10T11:54:49.842Z,12.47
2023-01-10T11:57:23.334Z,11.70
2023-01-10T11:59:57.034Z,12.70
2023-01-10T12:02:29.505Z,12.70
2023-01-10T12:05:02.233Z,11.63
2023-01-10T12:07:30.687Z,12.53
2023-01-10T12:10:01.254Z,11.97
2023-01-10T12:12:32.447Z,13.00
2023-01-10T12:15:24.782Z,11.70
2023-01-10T12:17:55.249Z,12.67
2023-01-10T12:20:24.658Z,12.77
2023-01-10T12:22:58.914Z,13.47
2023-01-10T12:25:36.421Z,12.07
2023-01-10T12:28:05.477Z,13.23
2023-01-10T12:30:43.149Z,12.27
2023-01-10T12:33:17.812Z,12.00
2023-01-10T12:36:00.513Z,12.33
2023-01-10T12:38:54.058Z,12.27
2023-01-10T12:41:49.144Z,11.93
2023-01-10T12:44:25.775Z,12.63
2023-01-10T12:47:08.101Z,12.63
2023-01-10T12:49:47.399Z,12.27
2023-01-10T12:52:28.857Z,11.97
2023-01-10T12:54:57.187Z,12.10
2023-01-10T12:57:32.516Z,12.00
2023-01-10T13:00:05.765Z,12.40
2023-01-10T13:02:43.932Z,13.80
2023-01-10T13:05:21.407Z,12.93
2023-01-10T13:07:52.580Z,13.57
2023-01-10T13:10:24.644Z,12.77
2023-01-10T13:13:00.706Z,12.97
2023-01-10T13:15:34.113Z,13.53
2023-01-10T13:18:16.618Z,13.93
2023-01-10T13:20:45.808Z,13.57
2023-01-10T13:23:30.078Z,12.37
2023-01-10T13:26:04.691Z,11.97
2023-01-10T13:28:36.583Z,12.60
2023-01-10T13:31:08.832Z,14.03
2023-01-10T13:33:55.992Z,12.73
2023-01-10T13:36:29.148Z,12.63
2023-01-10T13:39:01.176Z,12.90
2023-01-10T13:42:43.066Z,12.27
2023-01-10T13:45:25.110Z,12.43
2023-01-10T13:48:25.516Z,12.37
2023-01-10T13:51:20.108Z,10.93
2023-01-10T13:54:26.147Z,12.43
2023-01-10T13:56:54.679Z,11.27
2023-01-10T14:00:19.509Z,11.97
2023-01-10T14:02:48.058Z,11.77
2023-01-10T14:05:21.116Z,11.67
2023-01-10T14:07:54.899Z,11.77
2023-01-10T14:10:27.783Z,10.77
2023-01-10T14:12:59.981Z,11.63
2023-01-10T14:15:32.531Z,10.90
2023-01-10T14:18:05.577Z,10.40
2023-01-10T14:20:37.119Z,10.50
2023-01-10T14:23:18.657Z,10.40
2023-01-10T14:25:54.523Z,11.07
2023-01-10T14:28:27.660Z,10.63
2023-01-10T14:31:08.253Z,9.70
2023-01-10T14:33:38.407Z,9.23
2023-01-10T14:36:16.470Z,10.17
2023-01-10T14:38:49.439Z,9.47
2023-01-10T14:41:24.862Z,8.70
2023-01-10T14:44:00.405Z,8.83
2023-01-10T14:46:39.856Z,9.57
2023-01-10T14:49:23.740Z,9.13
2023-01-10T14:51:52.422Z,8.73
2023-01-10T14:54:23.466Z,8.53
2023-01-10T14:56:54.085Z,8.07
2023-01-10T14:59:28.759Z,8.07
2023-01-10T15:02:00.156Z,7.23
2023-01-10T15:04:32.792Z,7.47
2023-01-10T15:07:04.213Z,8.07
2023-01-10T15:09:34.423Z,7.27
2023-01-10T15:12:09.002Z,7.63
2023-01-10T15:14:39.248Z,7.97
2023-01-10T15:17:12.907Z,7.83
2023-01-10T15:19:41.850Z,8.23
2023-01-10T15:22:30.790Z,8.33
2023-01-10T15:25:02.607Z,7.93
2023-01-10T15:27:32.594Z,8.30
2023-01-10T15:30:02.479Z,8.27
2023-01-10T15:32:38.260Z,7.57
2023-01-10T15:35:12.102Z,8.20
2023-01-10T15:37:49.878Z,9.03
2023-01-10T15:40:26.251Z,8.13
2023-01-10T15:43:13.534Z,8.60
2023-01-10T15:46:20.813Z,8.33
2023-01-10T15:49:00.462Z,8.60
2023-01-10T15:51:33.685Z,8.23
2023-01-10T15:54:05.630Z,7.67
2023-01-10T15:56:40.259Z,8.43
2023-01-10T15:59:24.625Z,8.90
2023-01-10T16:01:59.726Z,9.93
2023-01-10T16:04:29.299Z,9.63
2023-01-10T16:07:08.815Z,9.63
2023-01-10T16:09:39.482Z,8.83
2023-01-10T16:12:41.512Z,17.87
2023-01-10T16:15:19.097Z,9.10
2023-01-10T16:17:49.877Z,10.33
2023-01-10T16:20:21.513Z,9.27
2023-01-10T16:22:51.207Z,10.60
2023-01-10T16:25:26.033Z,10.00
2023-01-10T16:27:56.206Z,9.33
2023-01-10T16:30:27.405Z,9.40
2023-01-10T16:32:57.225Z,10.10
2023-01-10T16:35:26.825Z,10.23
2023-01-10T16:37:58.488Z,10.07
2023-01-10T16:40:29.974Z,9.27
2023-01-10T16:43:17.704Z,10.63
2023-01-10T16:45:47.334Z,10.47
2023-01-10T16:48:15.971Z,11.03
2023-01-10T16:50:45.524Z,10.97
2023-01-10T16:53:16.856Z,11.10
2023-01-10T16:55:48.359Z,11.07
2023-01-10T16:58:19.697Z,12.67
2023-01-10T17:00:51.520Z,11.80
2023-01-10T17:03:25.143Z,12.73
2023-01-10T17:05:53.685Z,11.13
2023-01-10T17:08:24.856Z,12.43
2023-01-10T17:11:00.196Z,12.17
2023-01-10T17:13:35.905Z,12.23
2023-01-10T17:16:04.318Z,12.73
2023-01-10T17:18:32.834Z,11.50
2023-01-10T17:21:01.135Z,11.67
2023-01-10T17:23:30.680Z,10.80
2023-01-10T17:26:04.261Z,10.83
2023-01-10T17:28:34.223Z,11.33
2023-01-10T17:31:03.143Z,11.47
2023-01-10T17:33:31.647Z,11.33
2023-01-10T17:36:00.051Z,12.10
2023-01-10T17:38:29.627Z,10.10
2023-01-10T17:41:02.298Z,11.57
2023-01-10T17:43:32.826Z,11.17
2023-01-10T17:46:05.677Z,10.07
2023-01-10T17:48:35.010Z,11.47
2023-01-10T17:51:04.535Z,8.97
2023-01-10T17:53:32.891Z,9.87
2023-01-10T17:56:01.205Z,11.17
2023-01-10T17:58:29.930Z,9.97
2023-01-10T18:00:59.906Z,8.93
2023-01-10T18:03:29.448Z,9.10
2023-01-10T18:06:00.057Z,8.47
2023-01-10T18:08:28.570Z,8.70
2023-01-10T18:11:01.053Z,9.27
2023-01-10T18:13:31.490Z,8.63
2023-01-10T18:16:03.124Z,8.93
2023-01-10T18:18:31.909Z,8.13
2023-01-10T18:21:02.189Z,8.20
2023-01-10T18:23:31.732Z,7.87
2023-01-10T18:26:03.100Z,7.73
2023-01-10T18:28:40.797Z,7.33
2023-01-10T18:31:13.965Z,7.73
2023-01-10T18:33:42.841Z,8.07
2023-01-10T18:36:16.315Z,7.40
2023-01-10T18:38:46.462Z,6.57
2023-01-10T18:41:15.371Z,6.80
2023-01-10T18:43:43.660Z,6.97
2023-01-10T18:46:16.088Z,6.93
2023-01-10T18:48:44.484Z,7.97
2023-01-10T18:51:15.327Z,6.70
2023-01-10T18:53:44.767Z,6.80
2023-01-10T18:56:13.334Z,6.77
2023-01-10T18:58:43.329Z,7.30
2023-01-10T19:01:14.803Z,7.03
2023-01-10T19:03:45.397Z,6.13
2023-01-10T19:06:17.209Z,6.23
2023-01-10T19:08:47.289Z,5.93
2023-01-10T19:11:17.164Z,5.30
2023-01-10T19:13:46.716Z,5.47
2023-01-10T19:16:19.519Z,5.63
2023-01-10T19:18:52.338Z,5.30
2023-01-10T19:21:21.445Z,5.10
2023-01-10T19:23:52.360Z,4.87
2023-01-10T19:26:20.698Z,5.03
2023-01-10T19:28:49.489Z,5.20
2023-01-10T19:31:22.031Z,5.77
2023-01-10T19:33:50.741Z,4.97
2023-01-10T19:36:21.961Z,6.33
2023-01-10T19:38:54.692Z,4.77
2023-01-10T19:41:22.964Z,4.90
2023-01-10T19:43:57.951Z,4.30
2023-01-10T19:46:28.496Z,4.70
2023-01-10T19:48:57.297Z,4.43
2023-01-10T19:51:26.177Z,4.90
2023-01-10T19:53:54.701Z,4.93
2023-01-10T19:56:23.342Z,4.43
2023-01-10T19:58:52.548Z,4.60
2023-01-10T20:01:24.205Z,4.40
2023-01-10T20:03:57.557Z,5.27
2023-01-10T20:06:28.355Z,4.43
2023-01-10T20:08:57.054Z,4.40
2023-01-10T20:11:36.720Z,5.17
2023-01-10T20:14:05.834Z,3.70
2023-01-10T20:16:34.716Z,4.50
2023-01-10T20:19:08.832Z,4.43
2023-01-10T20:21:38.130Z,5.03
2023-01-10T20:24:12.319Z,4.10
2023-01-10T20:26:41.378Z,4.03
2023-01-10T20:29:10.019Z,3.70
2023-01-10T20:31:38.357Z,3.43
2023-01-10T20:34:07.997Z,4.53
2023-01-10T20:36:36.372Z,3.47
2023-01-10T20:39:05.280Z,4.00
2023-01-10T20:41:33.690Z,4.57
2023-01-10T20:44:02.020Z,4.63
2023-01-10T20:46:32.806Z,4.43
2023-01-10T20:49:02.998Z,4.10
2023-01-10T20:51:35.224Z,4.77
2023-01-10T20:54:05.678Z,3.87
2023-01-10T20:56:35.276Z,3.93
2023-01-10T20:59:05.423Z,4.00
2023-01-10T21:01:35.613Z,3.93
2023-01-10T21:04:06.861Z,4.17
2023-01-10T21:06:37.536Z,3.60
2023-01-10T21:09:06.925Z,4.30
2023-01-10T21:11:51.549Z,4.30
2023-01-10T21:14:24.802Z,3.70
2023-01-10T21:16:53.122Z,4.20
2023-01-10T21:19:21.689Z,3.30
2023-01-10T21:21:51.441Z,4.00
2023-01-10T21:24:22.828Z,4.63
2023-01-10T21:26:51.130Z,3.97
2023-01-10T21:29:19.540Z,3.30
2023-01-10T21:31:47.906Z,4.20
2023-01-10T21:34:16.274Z,3.37
2023-01-10T21:36:44.463Z,4.47
2023-01-10T21:39:14.115Z,3.37
2023-01-10T21:41:59.891Z,3.43
2023-01-10T21:44:28.238Z,3.50
2023-01-10T21:46:56.565Z,3.57
2023-01-10T21:49:25.057Z,3.80
2023-01-10T21:51:53.410Z,3.93
2023-01-10T21:54:23.328Z,3.60
2023-01-10T21:56:51.615Z,3.93
2023-01-10T21:59:19.879Z,3.67
2023-01-10T22:01:48.457Z,3.67
2023-01-10T22:04:17.585Z,3.77
2023-01-10T22:06:46.015Z,3.90
2023-01-10T22:09:14.335Z,3.83
2023-01-10T22:11:44.004Z,3.33
2023-01-10T22:14:13.250Z,3.73
2023-01-10T22:16:41.617Z,4.53
2023-01-10T22:19:10.057Z,3.53
2023-01-10T22:21:38.244Z,3.50
2023-01-10T22:24:07.326Z,3.37
2023-01-10T22:26:35.628Z,3.90
2023-01-10T22:29:05.984Z,3.80
2023-01-10T22:31:34.451Z,3.83
2023-01-10T22:34:02.799Z,4.10
2023-01-10T22:36:31.057Z,4.67
2023-01-10T22:38:59.478Z,4.03
2023-01-10T22:41:28.801Z,4.43
2023-01-10T22:43:58.539Z,4.27
2023-01-10T22:46:28.769Z,4.23
2023-01-10T22:48:57.631Z,3.63
2023-01-10T22:51:28.751Z,4.33
2023-01-10T22:53:59.243Z,4.27
2023-01-10T22:56:27.718Z,4.23
2023-01-10T22:58:56.081Z,4.40
2023-01-10T23:01:27.172Z,4.43
2023-01-10T23:03:55.642Z,3.73
2023-01-10T23:06:24.065Z,4.30
2023-01-10T23:08:52.637Z,4.03
2023-01-10T23:11:23.058Z,3.30
2023-01-10T23:13:51.771Z,3.60
2023-01-10T23:16:28.097Z,4.00
2023-01-10T23:18:58.260Z,3.93
2023-01-10T23:21:29.550Z,3.87
2023-01-10T23:23:58.345Z,3.77
2023-01-10T23:26:26.745Z,3.43
2023-01-10T23:28:55.029Z,3.97
2023-01-10T23:31:29.334Z,3.67
2023-01-10T23:33:59.581Z,4.47
2023-01-10T23:36:27.858Z,3.43
2023-01-10T23:38:56.078Z,3.77
2023-01-10T23:41:24.907Z,3.53
2023-01-10T23:43:53.479Z,3.77
2023-01-10T23:46:21.827Z,4.40
2023-01-10T23:48:50.142Z,3.60
2023-01-10T23:51:19.687Z,3.40
2023-01-10T23:53:47.901Z,3.93
2023-01-10T23:56:16.414Z,3.87
2023-01-10T23:58:44.819Z,4.17
